createdAt,value
2019-04-23T00:01:25.525Z,2.40
2019-04-23T00:03:45.855Z,1.70
2019-04-23T00:09:00.612Z,2.20
2019-04-23T00:11:19.325Z,2.30
2019-04-23T00:13:50.365Z,2.60
2019-04-23T00:16:26.519Z,2.50
2019-04-23T00:19:08.319Z,2.60
2019-04-23T00:21:28.375Z,2.40
2019-04-23T00:24:01.763Z,2.30
2019-04-23T00:26:30.652Z,2.60
2019-04-23T00:29:07.893Z,2.80
2019-04-23T00:31:44.591Z,2.60
2019-04-23T00:34:01.190Z,2.60
2019-04-23T00:36:37.822Z,2.50
2019-04-23T00:39:06.653Z,2.60
2019-04-23T00:41:36.256Z,2.50
2019-04-23T00:46:36.840Z,2.70
2019-04-23T00:49:14.988Z,2.90
2019-04-23T00:51:38.253Z,2.90
2019-04-23T00:54:14.471Z,2.70
2019-04-23T00:59:12.570Z,2.90
2019-04-23T01:04:13.592Z,3.00
2019-04-23T01:06:44.598Z,3.00
2019-04-23T01:09:19.620Z,3.10
2019-04-23T01:11:48.159Z,3.20
2019-04-23T01:14:20.127Z,3.50
2019-04-23T01:16:42.567Z,3.30
2019-04-23T01:19:38.571Z,3.60
2019-04-23T01:21:53.704Z,3.30
2019-04-23T01:24:38.130Z,3.30
2019-04-23T01:27:49.076Z,3.60
2019-04-23T01:30:09.643Z,3.60
2019-04-23T01:32:49.704Z,3.70
2019-04-23T01:40:15.297Z,3.90
2019-04-23T01:42:45.768Z,3.80
2019-04-23T01:47:45.636Z,3.80
2019-04-23T01:55:21.402Z,4.30
2019-04-23T01:57:58.117Z,4.30
2019-04-23T02:00:24.122Z,4.00
2019-04-23T02:02:55.463Z,4.50
2019-04-23T02:05:32.562Z,4.60
2019-04-23T02:10:32.823Z,4.40
2019-04-23T02:12:55.635Z,4.70
2019-04-23T02:15:23.005Z,4.90
2019-04-23T02:18:00.097Z,4.60
2019-04-23T02:20:32.578Z,5.00
2019-04-23T02:23:18.307Z,5.00
2019-04-23T02:28:21.841Z,5.30
2019-04-23T02:31:18.293Z,5.30
2019-04-23T02:35:58.639Z,5.40
2019-04-23T02:43:22.714Z,5.70
2019-04-23T02:48:36.169Z,5.60
2019-04-23T02:51:03.491Z,6.10
2019-04-23T03:03:51.306Z,6.40
2019-04-23T03:06:16.548Z,6.50
2019-04-23T03:08:47.149Z,6.60
2019-04-23T03:11:15.624Z,6.80
2019-04-23T03:24:29.599Z,7.00
2019-04-23T03:39:32.556Z,7.30
2019-04-23T03:41:54.850Z,7.10
2019-04-23T03:44:29.117Z,7.20
2019-04-23T03:46:51.902Z,7.20
2019-04-23T03:49:36.976Z,7.40
2019-04-23T03:52:07.383Z,7.60
2019-04-23T03:57:18.540Z,7.50
2019-04-23T04:02:19.655Z,8.00
2019-04-23T04:04:33.398Z,8.00
2019-04-23T04:07:12.802Z,8.10
2019-04-23T04:09:45.705Z,8.00
2019-04-23T04:12:14.318Z,8.40
2019-04-23T04:14:48.333Z,8.10
2019-04-23T04:17:17.779Z,8.20
2019-04-23T04:22:28.405Z,8.70
2019-04-23T04:27:18.848Z,8.50
2019-04-23T04:32:11.499Z,9.00
2019-04-23T04:40:10.922Z,9.40
2019-04-23T04:42:25.220Z,8.80
2019-04-23T04:47:40.333Z,8.80
2019-04-23T04:50:26.699Z,8.80
2019-04-23T04:54:55.968Z,8.90
2019-04-23T04:57:35.787Z,9.30
2019-04-23T05:00:13.277Z,9.50
2019-04-23T05:02:42.720Z,9.20
2019-04-23T05:05:31.353Z,9.50
2019-04-23T05:07:37.765Z,9.50
2019-04-23T05:10:29.740Z,9.70
2019-04-23T05:12:43.853Z,10.30
2019-04-23T05:15:00.808Z,9.80
2019-04-23T05:20:12.882Z,10.10
2019-04-23T05:22:51.046Z,10.20
2019-04-23T05:25:04.190Z,10.20
2019-04-23T05:27:47.218Z,10.00
2019-04-23T05:30:15.433Z,10.50
2019-04-23T05:32:43.161Z,10.30
2019-04-23T05:35:20.247Z,10.30
2019-04-23T05:37:58.480Z,10.70
2019-04-23T05:42:49.725Z,10.00
2019-04-23T05:45:16.074Z,10.40
2019-04-23T05:50:30.212Z,10.40
2019-04-23T05:52:57.733Z,10.60
2019-04-23T05:55:18.777Z,10.30
2019-04-23T05:57:59.278Z,11.10
2019-04-23T06:05:34.086Z,10.90
2019-04-23T06:10:32.701Z,10.60
2019-04-23T06:13:03.046Z,10.10
2019-04-23T06:15:31.660Z,10.10
2019-04-23T06:18:12.477Z,9.50
2019-04-23T06:20:42.393Z,10.10
2019-04-23T06:23:13.390Z,9.80
2019-04-23T06:25:49.620Z,10.00
2019-04-23T06:33:14.506Z,9.80
2019-04-23T06:35:45.429Z,9.80
2019-04-23T06:38:32.956Z,9.90
2019-04-23T06:40:48.753Z,9.40
2019-04-23T06:43:35.230Z,9.50
2019-04-23T06:46:01.470Z,9.60
2019-04-23T06:51:04.242Z,10.00
2019-04-23T06:53:33.814Z,9.90
2019-04-23T06:58:37.077Z,9.50
2019-04-23T07:01:05.305Z,10.50
2019-04-23T07:13:55.761Z,9.80
2019-04-23T07:21:17.708Z,8.90
2019-04-23T07:23:53.578Z,8.90
2019-04-23T07:33:57.899Z,9.80
2019-04-23T07:39:01.096Z,8.50
2019-04-23T07:41:49.822Z,8.70
2019-04-23T07:44:31.537Z,9.10
2019-04-23T07:47:11.252Z,8.90
2019-04-23T07:49:30.757Z,9.50
2019-04-23T07:52:11.076Z,8.80
2019-04-23T07:54:42.187Z,8.20
2019-04-23T07:57:18.652Z,8.40
2019-04-23T07:59:45.995Z,8.30
2019-04-23T08:02:14.524Z,9.00
2019-04-23T08:04:43.917Z,7.70
2019-04-23T08:12:19.311Z,7.00
2019-04-23T08:14:46.962Z,7.00
2019-04-23T08:17:10.749Z,7.00
2019-04-23T08:19:57.138Z,6.40
2019-04-23T08:25:05.049Z,7.40
2019-04-23T08:27:25.008Z,7.10
2019-04-23T08:29:47.717Z,7.00
2019-04-23T08:32:19.023Z,7.00
2019-04-23T08:37:51.241Z,6.60
2019-04-23T08:39:52.515Z,6.80
2019-04-23T08:45:31.352Z,6.50
2019-04-23T08:48:05.816Z,6.80
2019-04-23T08:50:29.720Z,7.20
2019-04-23T08:53:07.026Z,5.30
2019-04-23T08:55:34.024Z,5.90
2019-04-23T08:57:58.109Z,5.30
2019-04-23T09:00:33.733Z,5.20
2019-04-23T09:03:04.845Z,4.50
2019-04-23T09:05:50.464Z,4.70
2019-04-23T09:08:15.046Z,6.20
2019-04-23T09:10:40.979Z,6.30
2019-04-23T09:13:35.274Z,5.50
2019-04-23T09:20:36.072Z,5.30
2019-04-23T09:23:13.551Z,4.80
2019-04-23T09:25:49.795Z,4.90
2019-04-23T09:33:31.106Z,3.10
2019-04-23T09:38:55.133Z,2.50
2019-04-23T09:41:46.904Z,3.00
2019-04-23T09:47:07.829Z,2.40
2019-04-23T09:49:34.988Z,2.50
2019-04-23T09:52:09.488Z,2.40
2019-04-23T09:54:40.246Z,1.00
2019-04-23T09:57:08.208Z,1.90
2019-04-23T10:02:01.299Z,2.50
2019-04-23T10:04:28.215Z,2.60
2019-04-23T10:06:58.776Z,1.00
2019-04-23T10:09:16.731Z,1.90
2019-04-23T10:11:47.279Z,1.30
2019-04-23T10:14:16.798Z,1.60
2019-04-23T10:16:47.327Z,1.20
2019-04-23T10:19:17.162Z,1.00
2019-04-23T10:21:47.024Z,1.00
2019-04-23T10:24:16.978Z,1.00
2019-04-23T10:26:48.017Z,1.00
2019-04-23T10:29:20.085Z,1.00
2019-04-23T10:31:49.548Z,1.00
2019-04-23T10:34:19.011Z,1.00
2019-04-23T10:36:49.483Z,1.00
2019-04-23T10:39:25.406Z,1.00
2019-04-23T10:41:52.515Z,1.00
2019-04-23T10:44:29.206Z,1.00
2019-04-23T10:50:20.405Z,1.00
2019-04-23T10:52:37.553Z,1.00
2019-04-23T10:55:14.539Z,1.00
2019-04-23T10:57:36.081Z,1.00
2019-04-23T11:00:16.172Z,1.00
2019-04-23T11:03:12.512Z,1.00
2019-04-23T11:05:42.972Z,1.00
2019-04-23T11:07:44.262Z,1.00
2019-04-23T11:13:10.674Z,1.00
2019-04-23T11:15:36.207Z,1.00
2019-04-23T11:21:07.486Z,1.00
2019-04-23T11:28:11.094Z,1.00
2019-04-23T11:30:34.801Z,1.00
2019-04-23T11:33:25.658Z,1.00
2019-04-23T11:35:52.961Z,1.00
2019-04-23T11:38:35.470Z,1.00
2019-04-23T11:40:37.059Z,1.00
2019-04-23T11:43:18.551Z,1.00
2019-04-23T11:48:36.721Z,1.00
2019-04-23T11:51:20.920Z,1.00
2019-04-23T11:53:24.131Z,1.00
2019-04-23T11:58:23.741Z,1.00
2019-04-23T12:01:23.666Z,1.00
2019-04-23T12:04:07.086Z,1.00
2019-04-23T12:06:29.828Z,1.00
2019-04-23T12:09:33.783Z,1.00
2019-04-23T12:17:18.722Z,1.00
2019-04-23T12:19:52.654Z,1.00
2019-04-23T12:22:15.166Z,1.00
2019-04-23T12:24:56.861Z,1.00
2019-04-23T12:27:08.425Z,1.00
2019-04-23T12:29:40.352Z,1.00
2019-04-23T12:35:04.377Z,1.00
2019-04-23T12:37:44.976Z,1.00
2019-04-23T12:45:26.740Z,1.00
2019-04-23T12:47:53.662Z,1.00
2019-04-23T12:55:23.414Z,1.00
2019-04-23T12:57:47.283Z,1.00
2019-04-23T13:00:22.463Z,1.00
2019-04-23T13:05:21.739Z,1.00
2019-04-23T13:10:22.273Z,1.00
2019-04-23T13:15:22.723Z,1.00
2019-04-23T13:23:01.732Z,1.00
2019-04-23T13:25:55.753Z,1.00
2019-04-23T13:28:16.470Z,1.00
2019-04-23T13:30:46.796Z,1.00
2019-04-23T13:38:38.861Z,1.00
2019-04-23T13:40:57.102Z,1.00
2019-04-23T13:43:29.855Z,1.00
2019-04-23T13:48:29.917Z,1.00
2019-04-23T13:51:19.801Z,1.00
2019-04-23T13:55:58.784Z,1.00
2019-04-23T13:58:29.440Z,1.00
2019-04-23T14:03:37.938Z,1.00
2019-04-23T14:06:12.532Z,1.00
2019-04-23T14:11:11.395Z,1.00
2019-04-23T14:16:23.086Z,1.00
2019-04-23T14:21:20.300Z,1.00
2019-04-23T14:28:46.374Z,1.00
2019-04-23T14:31:18.841Z,1.00
2019-04-23T14:34:00.132Z,1.00
2019-04-23T14:36:27.014Z,1.00
2019-04-23T14:41:23.187Z,1.00
2019-04-23T14:46:41.261Z,1.00
2019-04-23T14:48:56.696Z,1.00
2019-04-23T14:51:39.323Z,1.00
2019-04-23T14:54:09.315Z,1.00
2019-04-23T14:59:12.138Z,1.00
2019-04-23T15:01:48.910Z,1.00
2019-04-23T15:04:04.229Z,1.00
2019-04-23T15:06:46.467Z,1.00
2019-04-23T15:09:18.863Z,1.00
2019-04-23T15:11:47.906Z,1.00
2019-04-23T15:14:10.128Z,1.00
2019-04-23T15:16:46.036Z,1.00
2019-04-23T15:19:28.504Z,1.00
2019-04-23T15:29:09.309Z,1.00
2019-04-23T15:34:23.728Z,1.00
2019-04-23T15:37:13.818Z,1.00
2019-04-23T15:39:42.694Z,1.00
2019-04-23T15:42:12.696Z,1.00
2019-04-23T15:44:21.817Z,1.00
2019-04-23T15:49:35.222Z,1.00
2019-04-23T15:52:07.354Z,1.00
2019-04-23T15:57:12.410Z,1.00
2019-04-23T16:01:43.864Z,1.00
2019-04-23T16:04:15.324Z,1.00
2019-04-23T16:06:45.694Z,1.00
2019-04-23T16:09:50.896Z,1.00
2019-04-23T16:12:05.631Z,1.00
2019-04-23T16:14:50.131Z,1.00
2019-04-23T16:17:20.951Z,1.00
2019-04-23T16:20:24.460Z,1.00
2019-04-23T16:22:37.550Z,1.00
2019-04-23T16:25:17.215Z,1.00
2019-04-23T16:27:34.831Z,1.00
2019-04-23T16:32:57.661Z,1.00
2019-04-23T16:35:34.687Z,1.00
2019-04-23T16:38:07.707Z,1.00
2019-04-23T16:40:33.053Z,1.00
2019-04-23T16:43:07.083Z,1.00
2019-04-23T16:45:45.451Z,1.00
2019-04-23T16:48:09.769Z,1.00
2019-04-23T16:50:41.418Z,1.00
2019-04-23T16:53:11.124Z,1.20
2019-04-23T16:55:38.361Z,1.60
2019-04-23T16:58:11.834Z,2.20
2019-04-23T17:01:00.758Z,1.90
2019-04-23T17:03:28.559Z,2.20
2019-04-23T17:05:39.305Z,2.20
2019-04-23T17:08:37.454Z,2.20
2019-04-23T17:10:53.661Z,2.40
2019-04-23T17:15:58.622Z,2.60
2019-04-23T17:20:53.409Z,2.70
2019-04-23T17:25:57.250Z,2.90
2019-04-23T17:28:31.391Z,3.30
2019-04-23T17:31:24.592Z,2.50
2019-04-23T17:33:35.113Z,3.30
2019-04-23T17:38:55.095Z,3.60
2019-04-23T17:41:31.304Z,3.70
2019-04-23T17:44:09.538Z,3.50
2019-04-23T17:46:27.352Z,3.30
2019-04-23T17:49:13.145Z,3.30
2019-04-23T17:51:31.053Z,3.40
2019-04-23T17:54:13.961Z,3.40
2019-04-23T17:57:05.560Z,3.80
2019-04-23T17:59:11.824Z,3.70
2019-04-23T18:01:57.221Z,4.00
2019-04-23T18:04:20.655Z,4.00
2019-04-23T18:06:49.406Z,4.50
2019-04-23T18:11:58.149Z,4.40
2019-04-23T18:14:30.852Z,5.00
2019-04-23T18:19:34.334Z,5.20
2019-04-23T18:25:22.124Z,5.90
2019-04-23T18:27:50.838Z,6.20
2019-04-23T18:30:15.833Z,6.70
2019-04-23T18:33:12.543Z,6.50
2019-04-23T18:35:29.363Z,6.50
2019-04-23T18:37:49.254Z,6.90
2019-04-23T18:40:22.507Z,6.80
2019-04-23T18:43:02.510Z,6.90
2019-04-23T18:45:33.978Z,6.90
2019-04-23T18:48:04.474Z,7.20
2019-04-23T18:50:39.655Z,7.80
2019-04-23T18:53:06.108Z,8.40
2019-04-23T18:55:46.051Z,8.70
2019-04-23T18:58:42.523Z,8.80
2019-04-23T19:00:55.086Z,9.10
2019-04-23T19:03:31.226Z,10.10
2019-04-23T19:06:31.989Z,10.00
2019-04-23T19:09:19.438Z,10.60
2019-04-23T19:12:28.265Z,11.00
2019-04-23T19:14:53.563Z,11.00
2019-04-23T19:25:07.058Z,12.80
2019-04-23T19:27:36.987Z,13.40
2019-04-23T19:30:05.127Z,13.80
2019-04-23T19:32:50.762Z,13.50
2019-04-23T19:35:57.474Z,13.30
2019-04-23T19:38:01.440Z,13.10
2019-04-23T19:40:50.516Z,13.40
2019-04-23T19:43:11.212Z,12.70
2019-04-23T19:45:49.339Z,13.30
2019-04-23T19:48:16.262Z,13.60
2019-04-23T19:50:49.102Z,12.60
2019-04-23T19:56:04.405Z,13.60
2019-04-23T19:58:23.899Z,13.70
2019-04-23T20:06:06.319Z,14.50
2019-04-23T20:08:39.726Z,14.50
2019-04-23T20:10:54.625Z,14.70
2019-04-23T20:13:39.226Z,13.80
2019-04-23T20:18:41.569Z,11.30
2019-04-23T20:20:59.376Z,11.40
2019-04-23T20:23:58.683Z,11.30
2019-04-23T20:31:54.523Z,11.70
2019-04-23T20:33:57.864Z,11.70
2019-04-23T20:36:21.367Z,11.50
2019-04-23T20:38:54.808Z,11.30
2019-04-23T20:41:21.731Z,11.70
2019-04-23T20:43:57.651Z,11.90
2019-04-23T20:46:14.967Z,12.20
2019-04-23T20:48:53.147Z,12.20
2019-04-23T20:51:24.521Z,12.60
2019-04-23T20:53:59.398Z,13.10
2019-04-23T20:56:31.249Z,12.70
2019-04-23T21:04:17.776Z,14.10
2019-04-23T21:06:41.535Z,12.80
2019-04-23T21:09:31.183Z,12.10
2019-04-23T21:11:43.819Z,12.30
2019-04-23T21:14:15.401Z,11.80
2019-04-23T21:16:41.547Z,12.40
2019-04-23T21:19:10.649Z,11.90
2019-04-23T21:21:54.943Z,12.80
2019-04-23T21:24:11.281Z,12.80
2019-04-23T21:26:50.118Z,14.10
2019-04-23T21:29:13.527Z,13.40
2019-04-23T21:31:48.460Z,13.40
2019-04-23T21:34:17.977Z,13.00
2019-04-23T21:36:51.061Z,14.10
2019-04-23T21:39:33.752Z,13.30
2019-04-23T21:44:28.818Z,13.40
2019-04-23T21:47:01.272Z,13.10
2019-04-23T21:52:05.164Z,13.00
2019-04-23T21:54:45.558Z,12.60
2019-04-23T21:57:09.037Z,13.60
2019-04-23T21:59:41.583Z,12.40
2019-04-23T22:02:13.441Z,12.70
2019-04-23T22:04:44.904Z,13.50
2019-04-23T22:07:19.451Z,13.10
2019-04-23T22:12:13.532Z,12.50
2019-04-23T22:14:45.340Z,12.60
2019-04-23T22:17:20.591Z,14.60
2019-04-23T22:19:55.659Z,13.50
2019-04-23T22:22:16.232Z,12.70
2019-04-23T22:24:53.060Z,12.80
2019-04-23T22:27:16.249Z,12.60
2019-04-23T22:29:51.322Z,12.90
2019-04-23T22:32:30.795Z,12.60
2019-04-23T22:37:35.376Z,12.60
2019-04-23T22:40:02.628Z,12.80
2019-04-23T22:43:07.459Z,12.70
2019-04-23T22:47:33.734Z,12.40
2019-04-23T22:55:07.411Z,12.60
2019-04-23T22:57:56.696Z,12.50
2019-04-23T23:02:59.002Z,13.20
2019-04-23T23:10:39.608Z,13.30
2019-04-23T23:13:13.802Z,13.80
2019-04-23T23:15:47.156Z,13.80
2019-04-23T23:18:14.628Z,14.30
2019-04-23T23:23:13.091Z,14.70
2019-04-23T23:25:44.296Z,15.80
2019-04-23T23:28:26.118Z,15.70
2019-04-23T23:35:53.006Z,15.90
2019-04-23T23:38:24.095Z,15.90
2019-04-23T23:40:57.114Z,15.80
2019-04-23T23:46:06.637Z,15.60
2019-04-23T23:48:21.033Z,16.10
2019-04-23T23:51:00.718Z,16.40
2019-04-23T23:53:36.510Z,16.30
2019-04-23T23:56:04.739Z,16.60
2019-04-23T23:58:52.944Z,16.50
